createdAt,value
2018-02-22T00:01:26.995Z,41.08
2018-02-22T00:03:55.164Z,44.72
2018-02-22T00:06:24.424Z,40.97
2018-02-22T00:08:52.048Z,43.72
2018-02-22T00:11:22.787Z,41.88
2018-02-22T00:13:50.992Z,40.85
2018-02-22T00:16:19.300Z,43.42
2018-02-22T00:18:47.651Z,44.33
2018-02-22T00:21:17.846Z,44.92
2018-02-22T00:23:47.111Z,43.67
2018-02-22T00:26:15.308Z,41.83
2018-02-22T00:28:43.596Z,42.38
2018-02-22T00:31:11.421Z,45.35
2018-02-22T00:33:39.878Z,41.65
2018-02-22T00:36:07.661Z,41.33
2018-02-22T00:38:35.277Z,41.35
2018-02-22T00:41:04.256Z,42.05
2018-02-22T00:43:32.941Z,41.47
2018-02-22T00:46:00.715Z,42.67
2018-02-22T00:48:28.360Z,42.08
2018-02-22T00:50:56.121Z,41.08
2018-02-22T00:53:25.001Z,43.83
2018-02-22T00:55:52.896Z,42.95
2018-02-22T00:58:20.418Z,44.53
2018-02-22T01:00:48.696Z,44.75
2018-02-22T01:03:17.105Z,45.45
2018-02-22T01:05:44.770Z,43.50
2018-02-22T01:08:13.078Z,43.22
2018-02-22T01:10:40.578Z,41.13
2018-02-22T01:13:09.806Z,43.40
2018-02-22T01:15:37.322Z,42.03
2018-02-22T01:18:05.726Z,41.40
2018-02-22T01:20:33.850Z,40.97
2018-02-22T01:23:01.563Z,42.58
2018-02-22T01:25:29.552Z,42.65
2018-02-22T01:27:57.235Z,42.35
2018-02-22T01:30:25.797Z,42.65
2018-02-22T01:32:53.508Z,41.90
2018-02-22T01:35:21.127Z,42.35
2018-02-22T01:37:48.869Z,42.55
2018-02-22T01:40:16.688Z,42.03
2018-02-22T01:42:44.278Z,42.78
2018-02-22T01:45:12.919Z,41.67
2018-02-22T01:47:40.794Z,44.13
2018-02-22T01:50:08.574Z,42.50
2018-02-22T01:52:36.241Z,43.15
2018-02-22T01:55:03.928Z,43.22
2018-02-22T01:57:31.617Z,42.90
2018-02-22T01:59:59.261Z,42.03
2018-02-22T02:02:27.825Z,43.22
2018-02-22T02:04:55.559Z,42.67
2018-02-22T02:07:23.350Z,42.60
2018-02-22T02:09:50.910Z,42.25
2018-02-22T02:12:19.410Z,40.53
2018-02-22T02:14:46.901Z,41.20
2018-02-22T02:17:14.605Z,42.40
2018-02-22T02:19:43.019Z,41.78
2018-02-22T02:22:10.783Z,41.37
2018-02-22T02:24:39.516Z,40.55
2018-02-22T02:27:08.116Z,43.70
2018-02-22T02:29:36.554Z,41.13
2018-02-22T02:32:04.216Z,42.72
2018-02-22T02:34:31.856Z,43.13
2018-02-22T02:36:59.642Z,42.85
2018-02-22T02:39:27.340Z,44.10
2018-02-22T02:41:54.974Z,40.60
2018-02-22T02:44:22.495Z,40.50
2018-02-22T02:46:51.257Z,41.85
2018-02-22T02:49:18.978Z,40.55
2018-02-22T02:51:46.679Z,41.50
2018-02-22T02:54:14.306Z,42.33
2018-02-22T02:56:41.992Z,41.65
2018-02-22T02:59:09.845Z,40.17
2018-02-22T03:01:37.617Z,42.05
2018-02-22T03:04:05.293Z,40.58
2018-02-22T03:06:34.419Z,40.05
2018-02-22T03:09:02.114Z,41.33
2018-02-22T03:11:30.718Z,42.50
2018-02-22T03:13:58.363Z,44.22
2018-02-22T03:16:26.038Z,39.92
2018-02-22T03:18:53.750Z,40.80
2018-02-22T03:21:21.418Z,39.42
2018-02-22T03:23:49.689Z,39.10
2018-02-22T03:26:18.143Z,42.05
2018-02-22T03:28:45.878Z,43.70
2018-02-22T03:31:13.437Z,40.95
2018-02-22T03:33:41.972Z,39.92
2018-02-22T03:36:09.855Z,41.50
2018-02-22T03:38:37.422Z,40.95
2018-02-22T03:41:05.782Z,41.33
2018-02-22T03:43:34.430Z,38.28
2018-02-22T03:46:01.942Z,40.65
2018-02-22T03:48:30.467Z,40.25
2018-02-22T03:50:58.942Z,40.20
2018-02-22T03:53:27.517Z,42.28
2018-02-22T03:55:55.312Z,39.00
2018-02-22T03:58:23.759Z,41.92
2018-02-22T04:00:51.268Z,38.30
2018-02-22T04:03:19.281Z,42.40
2018-02-22T04:05:47.059Z,38.80
2018-02-22T04:08:15.251Z,41.75
2018-02-22T04:10:42.875Z,40.00
2018-02-22T04:13:10.414Z,43.40
2018-02-22T04:15:38.761Z,40.42
2018-02-22T04:18:08.209Z,40.63
2018-02-22T04:20:36.215Z,40.25
2018-02-22T04:23:04.689Z,39.20
2018-02-22T04:25:32.366Z,38.65
2018-02-22T04:28:00.837Z,42.15
2018-02-22T04:30:28.495Z,41.90
2018-02-22T04:32:56.365Z,37.78
2018-02-22T04:35:24.202Z,39.90
2018-02-22T04:37:52.683Z,41.88
2018-02-22T04:40:20.372Z,43.50
2018-02-22T04:42:48.014Z,37.97
2018-02-22T04:45:15.570Z,40.85
2018-02-22T04:47:43.233Z,37.90
2018-02-22T04:50:10.912Z,38.15
2018-02-22T04:52:38.826Z,40.15
2018-02-22T04:55:06.474Z,37.58
2018-02-22T04:57:34.215Z,38.75
2018-02-22T05:00:01.815Z,38.13
2018-02-22T05:02:30.308Z,39.50
2018-02-22T05:04:58.701Z,40.58
2018-02-22T05:07:27.315Z,41.10
2018-02-22T05:09:55.052Z,39.58
2018-02-22T05:12:22.605Z,41.53
2018-02-22T05:14:51.150Z,39.13
2018-02-22T05:17:19.573Z,39.00
2018-02-22T05:19:48.055Z,41.35
2018-02-22T05:22:15.723Z,38.30
2018-02-22T05:24:44.050Z,39.20
2018-02-22T05:27:11.570Z,38.17
2018-02-22T05:29:39.071Z,39.30
2018-02-22T05:32:06.668Z,39.60
2018-02-22T05:34:34.393Z,36.67
2018-02-22T05:37:01.976Z,37.78
2018-02-22T05:39:29.487Z,40.50
2018-02-22T05:41:57.202Z,36.63
2018-02-22T05:44:24.873Z,41.30
2018-02-22T05:46:53.298Z,39.80
2018-02-22T05:49:20.905Z,41.20
2018-02-22T05:51:48.612Z,36.72
2018-02-22T05:54:16.186Z,40.35
2018-02-22T05:56:43.803Z,36.60
2018-02-22T05:59:11.535Z,41.08
2018-02-22T06:01:39.626Z,37.42
2018-02-22T06:04:07.348Z,38.22
2018-02-22T06:06:34.997Z,37.38
2018-02-22T06:09:02.545Z,36.90
2018-02-22T06:11:30.174Z,37.22
2018-02-22T06:13:57.902Z,35.38
2018-02-22T06:16:26.240Z,36.60
2018-02-22T06:18:53.848Z,39.17
2018-02-22T06:21:21.398Z,40.78
2018-02-22T06:23:49.088Z,37.45
2018-02-22T06:26:16.717Z,38.30
2018-02-22T06:28:44.292Z,39.72
2018-02-22T06:31:11.935Z,40.95
2018-02-22T06:33:39.630Z,37.40
2018-02-22T06:36:07.194Z,38.55
2018-02-22T06:38:35.671Z,35.72
2018-02-22T06:41:03.230Z,37.80
2018-02-22T06:43:30.762Z,38.45
2018-02-22T06:45:58.326Z,38.28
2018-02-22T06:48:26.012Z,34.08
2018-02-22T06:50:53.534Z,36.05
2018-02-22T06:53:21.081Z,39.03
2018-02-22T06:55:48.678Z,37.72
2018-02-22T06:58:16.429Z,38.25
2018-02-22T07:00:43.926Z,38.45
2018-02-22T07:03:11.522Z,34.70
2018-02-22T07:05:39.790Z,37.05
2018-02-22T07:08:08.058Z,35.65
2018-02-22T07:13:10.168Z,36.55
2018-02-22T07:15:37.760Z,34.83
2018-02-22T07:18:05.356Z,35.00
2018-02-22T07:20:32.921Z,33.97
2018-02-22T07:23:00.533Z,34.60
2018-02-22T07:25:28.195Z,31.77
2018-02-22T07:27:55.767Z,33.53
2018-02-22T07:30:23.416Z,33.50
2018-02-22T07:32:51.088Z,32.88
2018-02-22T07:35:18.698Z,30.65
2018-02-22T07:37:46.409Z,30.95
2018-02-22T07:40:14.854Z,29.60
2018-02-22T07:42:43.275Z,30.77
2018-02-22T07:45:10.836Z,30.10
2018-02-22T07:47:38.396Z,29.92
2018-02-22T07:50:05.924Z,31.10
2018-02-22T07:52:33.514Z,28.65
2018-02-22T07:55:01.057Z,29.48
2018-02-22T07:57:28.787Z,28.20
2018-02-22T07:59:58.014Z,30.92
2018-02-22T08:02:25.546Z,28.80
2018-02-22T08:04:53.802Z,28.85
2018-02-22T08:07:21.326Z,27.15
2018-02-22T08:09:48.817Z,29.77
2018-02-22T08:12:16.311Z,29.20
2018-02-22T08:14:44.746Z,26.67
2018-02-22T08:17:12.359Z,28.33
2018-02-22T08:19:40.018Z,26.73
2018-02-22T08:22:07.542Z,25.95
2018-02-22T08:24:35.026Z,27.95
2018-02-22T08:27:03.289Z,26.27
2018-02-22T08:29:31.546Z,26.48
2018-02-22T08:31:59.042Z,26.42
2018-02-22T08:34:27.314Z,26.40
2018-02-22T08:36:55.578Z,25.10
2018-02-22T08:39:23.055Z,26.02
2018-02-22T08:41:52.102Z,24.63
2018-02-22T08:44:19.598Z,25.27
2018-02-22T08:46:47.854Z,24.42
2018-02-22T08:49:15.348Z,25.90
2018-02-22T08:51:43.602Z,26.30
2018-02-22T08:54:11.879Z,24.75
2018-02-22T08:56:40.326Z,23.95
2018-02-22T08:59:07.822Z,23.27
2018-02-22T09:01:36.097Z,25.83
2018-02-22T09:04:03.703Z,22.75
2018-02-22T09:06:31.318Z,25.10
2018-02-22T09:08:58.826Z,24.23
2018-02-22T09:11:26.368Z,22.58
2018-02-22T09:13:53.866Z,24.35
2018-02-22T09:16:21.376Z,21.90
2018-02-22T09:18:49.626Z,21.98
2018-02-22T09:21:17.139Z,23.17
2018-02-22T09:23:44.626Z,22.48
2018-02-22T09:26:12.111Z,22.50
2018-02-22T09:28:40.378Z,21.85
2018-02-22T09:31:08.654Z,22.45
2018-02-22T09:33:36.952Z,19.58
2018-02-22T09:36:05.421Z,20.85
2018-02-22T09:38:33.787Z,21.12
2018-02-22T09:41:01.271Z,20.17
2018-02-22T09:43:29.570Z,21.15
2018-02-22T09:45:57.094Z,19.08
2018-02-22T09:48:25.366Z,18.55
2018-02-22T09:50:53.738Z,19.83
2018-02-22T09:53:22.394Z,20.30
2018-02-22T09:55:49.894Z,18.75
2018-02-22T09:58:18.230Z,19.50
2018-02-22T10:00:45.726Z,19.77
2018-02-22T10:05:48.630Z,17.75
2018-02-22T10:08:16.906Z,19.10
2018-02-22T10:10:45.175Z,19.60
2018-02-22T10:13:12.683Z,18.85
2018-02-22T10:15:40.183Z,17.55
2018-02-22T10:18:07.678Z,16.92
2018-02-22T10:20:35.264Z,17.33
2018-02-22T10:23:02.770Z,17.50
2018-02-22T10:25:30.269Z,17.43
2018-02-22T10:27:58.558Z,17.03
2018-02-22T10:30:26.047Z,18.20
2018-02-22T10:32:53.554Z,15.70
2018-02-22T10:35:21.058Z,14.70
2018-02-22T10:37:48.558Z,16.00
2018-02-22T10:40:16.814Z,16.10
2018-02-22T10:42:44.387Z,15.00
2018-02-22T10:45:12.665Z,17.50
2018-02-22T10:47:40.170Z,16.33
2018-02-22T10:50:07.925Z,17.10
2018-02-22T10:52:35.487Z,16.20
2018-02-22T10:55:03.010Z,15.47
2018-02-22T10:57:30.790Z,16.73
2018-02-22T10:59:59.056Z,16.20
2018-02-22T11:02:33.237Z,14.07
2018-02-22T11:05:00.779Z,14.73
2018-02-22T11:07:28.320Z,14.93
2018-02-22T11:09:56.442Z,15.53
2018-02-22T11:12:23.962Z,14.60
2018-02-22T11:14:52.324Z,14.87
2018-02-22T11:17:19.927Z,15.00
2018-02-22T11:19:48.149Z,15.30
2018-02-22T11:22:15.662Z,13.83
2018-02-22T11:24:43.254Z,15.03
2018-02-22T11:27:11.556Z,14.07
2018-02-22T11:29:39.047Z,14.37
2018-02-22T11:32:06.586Z,14.90
2018-02-22T11:34:34.546Z,13.87
2018-02-22T11:37:02.104Z,13.73
2018-02-22T11:39:29.602Z,12.97
2018-02-22T11:41:57.206Z,14.43
2018-02-22T11:44:25.474Z,13.20
2018-02-22T11:46:53.827Z,13.63
2018-02-22T11:49:21.319Z,13.07
2018-02-22T11:51:51.051Z,13.83
2018-02-22T11:54:18.552Z,13.30
2018-02-22T11:56:46.841Z,12.80
2018-02-22T11:59:14.347Z,13.67
2018-02-22T12:01:41.845Z,11.97
2018-02-22T12:04:13.203Z,13.20
2018-02-22T12:06:42.113Z,12.70
2018-02-22T12:09:10.389Z,12.60
2018-02-22T12:11:38.655Z,13.30
2018-02-22T12:14:06.214Z,11.83
2018-02-22T12:16:33.716Z,13.17
2018-02-22T12:19:04.367Z,12.20
2018-02-22T12:21:32.298Z,12.60
2018-02-22T12:24:00.550Z,12.83
2018-02-22T12:26:28.034Z,11.10
2018-02-22T12:28:57.270Z,12.77
2018-02-22T12:31:24.789Z,12.87
2018-02-22T12:33:54.179Z,11.53
2018-02-22T12:36:21.751Z,10.90
2018-02-22T12:38:50.008Z,9.80
2018-02-22T12:41:18.069Z,11.93
2018-02-22T12:43:45.598Z,11.40
2018-02-22T12:46:13.098Z,10.57
2018-02-22T12:48:40.588Z,10.33
2018-02-22T12:51:08.115Z,10.47
2018-02-22T12:53:35.597Z,9.37
2018-02-22T12:56:03.858Z,10.30
2018-02-22T12:58:31.379Z,10.20
2018-02-22T13:00:58.866Z,9.80
2018-02-22T13:03:26.480Z,10.23
2018-02-22T13:05:54.011Z,10.93
2018-02-22T13:08:22.305Z,10.00
2018-02-22T13:10:49.798Z,10.63
2018-02-22T13:13:17.345Z,9.80
2018-02-22T13:15:45.100Z,11.57
2018-02-22T13:18:12.615Z,10.47
2018-02-22T13:20:40.891Z,10.33
2018-02-22T13:23:08.473Z,11.00
2018-02-22T13:25:35.980Z,10.63
2018-02-22T13:28:03.484Z,10.77
2018-02-22T13:30:31.746Z,12.27
2018-02-22T13:36:02.682Z,10.80
2018-02-22T13:38:41.975Z,12.70
2018-02-22T13:41:09.529Z,12.20
2018-02-22T13:43:37.030Z,12.33
2018-02-22T13:46:04.550Z,12.43
2018-02-22T13:48:44.009Z,13.57
2018-02-22T13:51:11.538Z,12.20
2018-02-22T13:53:39.026Z,11.93
2018-02-22T13:56:06.529Z,12.40
2018-02-22T13:58:34.841Z,11.00
2018-02-22T14:01:14.151Z,11.63
2018-02-22T14:03:41.685Z,12.40
2018-02-22T14:06:09.174Z,11.60
2018-02-22T14:08:45.042Z,12.80
2018-02-22T14:11:12.559Z,12.90
2018-02-22T14:13:40.055Z,11.97
2018-02-22T14:16:07.588Z,10.87
2018-02-22T14:18:35.855Z,12.93
2018-02-22T14:21:03.346Z,12.20
2018-02-22T14:23:31.630Z,11.90
2018-02-22T14:25:59.138Z,12.73
2018-02-22T14:28:26.642Z,12.33
2018-02-22T14:30:54.134Z,12.10
2018-02-22T14:33:21.622Z,12.30
2018-02-22T14:35:49.117Z,11.60
2018-02-22T14:38:17.366Z,12.10
2018-02-22T14:40:44.909Z,12.40
2018-02-22T14:43:12.408Z,12.10
2018-02-22T14:45:40.669Z,12.00
2018-02-22T14:48:09.188Z,12.63
2018-02-22T14:50:36.686Z,12.30
2018-02-22T14:53:04.180Z,12.10
2018-02-22T14:55:32.497Z,13.37
2018-02-22T14:57:59.982Z,12.00
2018-02-22T15:00:27.681Z,12.17
2018-02-22T15:02:55.942Z,11.70
2018-02-22T15:05:23.439Z,13.53
2018-02-22T15:07:50.934Z,12.97
2018-02-22T15:10:18.434Z,12.87
2018-02-22T15:12:46.720Z,12.63
2018-02-22T15:15:14.218Z,13.57
2018-02-22T15:17:41.718Z,11.43
2018-02-22T15:20:09.994Z,12.70
2018-02-22T15:22:37.549Z,12.30
2018-02-22T15:25:05.133Z,13.03
2018-02-22T15:27:32.641Z,10.77
2018-02-22T15:30:00.154Z,10.77
2018-02-22T15:32:27.650Z,9.93
2018-02-22T15:34:55.150Z,9.60
2018-02-22T15:37:22.833Z,11.43
2018-02-22T15:39:50.325Z,11.60
2018-02-22T15:42:17.833Z,10.73
2018-02-22T15:44:46.106Z,10.20
2018-02-22T15:47:14.392Z,10.40
2018-02-22T15:49:42.667Z,10.50
2018-02-22T15:52:10.979Z,10.00
2018-02-22T15:54:38.508Z,10.98
2018-02-22T15:57:06.097Z,10.40
2018-02-22T15:59:33.629Z,11.25
2018-02-22T16:02:02.043Z,10.93
2018-02-22T16:04:29.671Z,11.12
2018-02-22T16:06:57.983Z,11.25
2018-02-22T16:09:25.486Z,10.50
2018-02-22T16:11:52.974Z,11.43
2018-02-22T16:14:21.306Z,10.10
2018-02-22T16:16:48.832Z,9.43
2018-02-22T16:19:16.318Z,9.77
2018-02-22T16:21:44.179Z,9.25
2018-02-22T16:24:11.868Z,9.63
2018-02-22T16:26:39.352Z,10.25
2018-02-22T16:29:07.614Z,8.88
2018-02-22T16:31:35.166Z,9.70
2018-02-22T16:34:02.914Z,9.85
2018-02-22T16:36:30.490Z,9.77
2018-02-22T16:38:58.109Z,9.30
2018-02-22T16:41:25.768Z,8.68
2018-02-22T16:43:54.021Z,9.20
2018-02-22T16:46:21.637Z,9.32
2018-02-22T16:48:50.297Z,10.05
2018-02-22T16:51:17.836Z,9.20
2018-02-22T16:53:45.521Z,10.63
2018-02-22T16:56:13.150Z,8.73
2018-02-22T16:58:41.587Z,10.35
2018-02-22T17:01:09.246Z,9.73
2018-02-22T17:03:36.867Z,9.65
2018-02-22T17:06:04.476Z,9.73
2018-02-22T17:08:32.787Z,9.88
2018-02-22T17:11:00.528Z,9.95
2018-02-22T17:13:28.895Z,10.07
2018-02-22T17:15:57.312Z,10.30
2018-02-22T17:18:25.136Z,9.57
2018-02-22T17:20:52.825Z,8.48
2018-02-22T17:23:21.098Z,9.27
2018-02-22T17:25:55.070Z,9.20
2018-02-22T17:28:28.194Z,10.60
2018-02-22T17:31:02.102Z,10.02
2018-02-22T17:33:29.621Z,9.27
2018-02-22T17:36:01.399Z,9.43
2018-02-22T17:38:37.281Z,8.68
2018-02-22T17:41:09.138Z,9.52
2018-02-22T17:43:38.659Z,9.50
2018-02-22T17:46:08.068Z,7.72
2018-02-22T17:48:39.012Z,9.07
2018-02-22T17:51:06.814Z,7.45
2018-02-22T17:53:35.351Z,9.45
2018-02-22T17:56:03.882Z,9.13
2018-02-22T17:58:31.378Z,8.20
2018-02-22T18:01:01.219Z,8.43
2018-02-22T18:03:32.387Z,9.73
2018-02-22T18:06:00.802Z,8.07
2018-02-22T18:08:30.316Z,9.02
2018-02-22T18:11:00.352Z,10.25
2018-02-22T18:13:28.853Z,9.57
2018-02-22T18:15:56.581Z,10.15
2018-02-22T18:18:24.155Z,10.68
2018-02-22T18:20:53.661Z,11.20
2018-02-22T18:23:30.295Z,10.10
2018-02-22T18:26:01.050Z,10.77
2018-02-22T18:28:31.697Z,11.20
2018-02-22T18:31:00.318Z,11.15
2018-02-22T18:33:31.848Z,10.20
2018-02-22T18:36:03.235Z,10.25
2018-02-22T18:38:39.259Z,10.77
2018-02-22T18:41:10.247Z,11.25
2018-02-22T18:43:40.619Z,9.88
2018-02-22T18:46:09.915Z,11.55
2018-02-22T18:48:39.077Z,10.88
2018-02-22T18:51:10.319Z,10.23
2018-02-22T18:53:39.935Z,10.18
2018-02-22T18:56:11.218Z,10.50
2018-02-22T18:58:43.069Z,10.93
2018-02-22T19:01:10.885Z,11.05
2018-02-22T19:03:42.605Z,12.02
2018-02-22T19:06:12.019Z,11.45
2018-02-22T19:08:41.943Z,11.40
2018-02-22T19:11:14.759Z,11.70
2018-02-22T19:13:45.875Z,11.15
2018-02-22T19:16:20.163Z,10.77
2018-02-22T19:18:49.431Z,11.18
2018-02-22T19:21:18.840Z,10.77
2018-02-22T19:23:52.322Z,10.75
2018-02-22T19:26:27.585Z,12.02
2018-02-22T19:28:56.221Z,11.20
2018-02-22T19:31:24.780Z,11.70
2018-02-22T19:33:58.778Z,10.57
2018-02-22T19:36:31.817Z,11.32
2018-02-22T19:39:03.734Z,13.05
2018-02-22T19:41:43.540Z,12.37
2018-02-22T19:44:15.527Z,11.57
2018-02-22T19:46:45.464Z,11.98
2018-02-22T19:49:21.308Z,12.80
2018-02-22T19:51:51.601Z,13.05
2018-02-22T19:54:20.208Z,11.50
2018-02-22T19:56:51.976Z,12.05
2018-02-22T19:59:21.742Z,13.20
2018-02-22T20:04:28.934Z,12.30
2018-02-22T20:09:43.849Z,13.73
2018-02-22T20:12:17.220Z,12.98
2018-02-22T20:14:52.688Z,13.73
2018-02-22T20:17:23.576Z,15.57
2018-02-22T20:19:52.864Z,13.60
2018-02-22T20:22:27.957Z,13.68
2018-02-22T20:25:04.029Z,14.48
2018-02-22T20:27:52.218Z,14.40
2018-02-22T20:33:15.299Z,13.43
2018-02-22T20:35:43.039Z,15.15
2018-02-22T20:38:22.165Z,15.80
2018-02-22T20:40:55.445Z,15.18
2018-02-22T20:43:24.198Z,15.20
2018-02-22T20:46:09.480Z,16.15
2018-02-22T20:48:40.140Z,15.30
2018-02-22T20:51:12.901Z,15.93
2018-02-22T20:53:42.398Z,16.25
2018-02-22T20:56:12.172Z,15.93
2018-02-22T20:58:41.314Z,16.42
2018-02-22T21:01:21.909Z,16.27
2018-02-22T21:03:53.032Z,16.52
2018-02-22T21:06:21.805Z,15.48
2018-02-22T21:08:50.198Z,17.10
2018-02-22T21:14:18.185Z,17.62
2018-02-22T21:16:47.830Z,18.35
2018-02-22T21:19:23.553Z,17.27
2018-02-22T21:22:17.329Z,18.77
2018-02-22T21:24:58.504Z,16.92
2018-02-22T21:27:30.914Z,17.27
2018-02-22T21:30:15.560Z,17.75
2018-02-22T21:33:06.940Z,17.15
2018-02-22T21:35:36.979Z,17.20
2018-02-22T21:38:11.708Z,19.33
2018-02-22T21:40:39.336Z,19.23
2018-02-22T21:43:06.951Z,16.80
2018-02-22T21:45:35.382Z,18.52
2018-02-22T21:48:03.082Z,17.10
2018-02-22T21:50:30.679Z,16.48
2018-02-22T21:52:59.017Z,17.25
2018-02-22T21:55:27.671Z,18.25
2018-02-22T21:57:56.038Z,17.15
2018-02-22T22:00:23.727Z,17.73
2018-02-22T22:02:51.340Z,19.23
2018-02-22T22:05:19.780Z,17.17
2018-02-22T22:07:48.176Z,22.13
2018-02-22T22:10:16.627Z,18.27
2018-02-22T22:12:45.011Z,17.95
2018-02-22T22:15:13.587Z,20.65
2018-02-22T22:17:41.260Z,18.08
2018-02-22T22:20:08.957Z,18.30
2018-02-22T22:22:36.716Z,17.92
2018-02-22T22:25:04.739Z,17.95
2018-02-22T22:27:32.380Z,18.83
2018-02-22T22:29:59.965Z,17.85
2018-02-22T22:32:28.458Z,19.67
2018-02-22T22:34:56.093Z,17.75
2018-02-22T22:37:23.700Z,17.25
2018-02-22T22:39:51.356Z,17.05
2018-02-22T22:42:18.963Z,19.40
2018-02-22T22:44:47.497Z,18.67
2018-02-22T22:47:15.145Z,18.40
2018-02-22T22:49:43.515Z,19.05
2018-02-22T22:52:11.262Z,19.52
2018-02-22T22:54:38.861Z,17.77
2018-02-22T22:57:06.443Z,18.20
2018-02-22T22:59:34.287Z,17.52
2018-02-22T23:02:01.962Z,19.67
2018-02-22T23:04:29.622Z,17.75
2018-02-22T23:06:58.151Z,17.60
2018-02-22T23:09:26.498Z,18.70
2018-02-22T23:11:54.938Z,19.70
2018-02-22T23:14:22.699Z,17.08
2018-02-22T23:16:50.396Z,18.23
2018-02-22T23:19:18.111Z,17.17
2018-02-22T23:21:45.689Z,16.58
2018-02-22T23:24:13.859Z,17.80
2018-02-22T23:26:41.523Z,19.30
2018-02-22T23:29:09.133Z,17.58
2018-02-22T23:31:36.659Z,17.42
2018-02-22T23:34:04.309Z,19.80
2018-02-22T23:36:33.037Z,18.00
2018-02-22T23:39:01.253Z,17.37
2018-02-22T23:41:49.031Z,18.37
2018-02-22T23:44:16.666Z,17.23
2018-02-22T23:46:44.972Z,18.25
2018-02-22T23:49:13.634Z,15.82
2018-02-22T23:54:28.289Z,16.75
2018-02-22T23:56:57.129Z,19.02
